createdAt,value
2018-05-24T00:00:08.411Z,15.07
2018-05-24T00:02:39.611Z,13.73
2018-05-24T00:05:07.750Z,14.63
2018-05-24T00:07:35.902Z,14.73
2018-05-24T00:10:04.006Z,15.07
2018-05-24T00:12:32.898Z,15.97
2018-05-24T00:15:01.759Z,14.37
2018-05-24T00:17:29.892Z,14.33
2018-05-24T00:19:58.042Z,14.10
2018-05-24T00:22:51.250Z,14.80
2018-05-24T00:25:19.439Z,16.17
2018-05-24T00:27:47.631Z,15.67
2018-05-24T00:30:15.722Z,16.50
2018-05-24T00:32:53.690Z,14.60
2018-05-24T00:35:21.773Z,14.63
2018-05-24T00:37:49.857Z,13.87
2018-05-24T00:40:18.705Z,14.17
2018-05-24T00:42:46.813Z,13.40
2018-05-24T00:45:14.894Z,14.10
2018-05-24T00:47:43.746Z,14.80
2018-05-24T00:50:11.836Z,14.30
2018-05-24T00:52:39.908Z,14.03
2018-05-24T00:55:25.809Z,12.90
2018-05-24T00:57:54.681Z,13.50
2018-05-24T01:00:22.768Z,51.43
2018-05-24T01:02:50.846Z,57.77
2018-05-24T01:05:19.708Z,16.00
2018-05-24T01:07:47.790Z,14.70
2018-05-24T01:10:15.874Z,14.90
2018-05-24T01:12:44.726Z,16.23
2018-05-24T01:15:12.820Z,15.50
2018-05-24T01:17:40.897Z,15.50
2018-05-24T01:20:08.994Z,16.30
2018-05-24T01:22:43.265Z,16.20
2018-05-24T01:25:11.376Z,15.90
2018-05-24T01:27:40.323Z,15.40
2018-05-24T01:30:08.430Z,15.17
2018-05-24T01:32:37.295Z,15.17
2018-05-24T01:35:05.451Z,12.37
2018-05-24T01:37:49.608Z,13.03
2018-05-24T01:40:17.768Z,13.13
2018-05-24T01:42:49.279Z,14.37
2018-05-24T01:45:18.201Z,14.37
2018-05-24T01:47:46.322Z,12.30
2018-05-24T01:50:15.249Z,15.33
2018-05-24T01:52:43.393Z,14.93
2018-05-24T01:55:12.326Z,17.53
2018-05-24T01:57:40.462Z,17.23
2018-05-24T02:00:09.346Z,16.40
2018-05-24T02:02:39.255Z,16.70
2018-05-24T02:05:07.414Z,16.37
2018-05-24T02:07:35.612Z,16.23
2018-05-24T02:10:03.747Z,16.10
2018-05-24T02:12:32.818Z,15.47
2018-05-24T02:15:01.022Z,15.07
2018-05-24T02:17:29.886Z,14.63
2018-05-24T02:19:58.048Z,14.60
2018-05-24T02:22:26.190Z,14.23
2018-05-24T02:24:55.062Z,16.00
2018-05-24T02:27:23.207Z,15.83
2018-05-24T02:29:51.362Z,16.37
2018-05-24T02:32:20.468Z,15.43
2018-05-24T02:34:48.590Z,17.10
2018-05-24T02:37:17.462Z,16.53
2018-05-24T02:39:45.607Z,16.43
2018-05-24T02:42:14.717Z,16.10
2018-05-24T02:44:42.815Z,14.97
2018-05-24T02:47:10.985Z,15.13
2018-05-24T02:49:39.167Z,15.37
2018-05-24T02:52:26.054Z,15.73
2018-05-24T02:54:54.162Z,14.77
2018-05-24T02:57:22.277Z,15.87
2018-05-24T02:59:50.393Z,14.83
2018-05-24T03:02:28.205Z,15.33
2018-05-24T03:04:57.065Z,16.37
2018-05-24T03:07:25.202Z,15.80
2018-05-24T03:09:53.286Z,15.20
2018-05-24T03:12:22.380Z,15.13
2018-05-24T03:14:50.418Z,14.93
2018-05-24T03:17:18.539Z,15.50
2018-05-24T03:19:46.710Z,15.23
2018-05-24T03:22:18.850Z,15.20
2018-05-24T03:24:46.962Z,14.83
2018-05-24T03:27:15.106Z,15.03
2018-05-24T03:29:43.256Z,15.40
2018-05-24T03:32:11.402Z,16.57
2018-05-24T03:34:40.320Z,16.07
2018-05-24T03:37:08.502Z,15.33
2018-05-24T03:39:36.650Z,15.20
2018-05-24T03:42:13.965Z,15.07
2018-05-24T03:44:42.087Z,15.63
2018-05-24T03:47:10.229Z,15.77
2018-05-24T03:49:38.330Z,15.43
2018-05-24T03:52:07.512Z,14.97
2018-05-24T03:54:36.293Z,14.87
2018-05-24T03:57:04.361Z,15.13
2018-05-24T04:00:12.097Z,15.63
2018-05-24T04:03:03.920Z,15.30
2018-05-24T04:05:32.787Z,19.20
2018-05-24T04:08:00.862Z,19.10
2018-05-24T04:10:28.954Z,19.20
2018-05-24T04:12:57.042Z,18.00
2018-05-24T04:15:25.903Z,18.50
2018-05-24T04:17:53.986Z,20.37
2018-05-24T04:20:22.855Z,18.97
2018-05-24T04:23:03.233Z,20.10
2018-05-24T04:28:23.406Z,20.93
2018-05-24T04:30:53.701Z,20.63
2018-05-24T04:33:23.415Z,20.93
2018-05-24T04:38:32.984Z,20.03
2018-05-24T04:41:22.890Z,21.67
2018-05-24T04:43:58.627Z,23.00
2018-05-24T04:46:27.671Z,24.63
2018-05-24T04:48:55.864Z,24.80
2018-05-24T04:51:24.048Z,24.37
2018-05-24T04:53:52.229Z,25.03
2018-05-24T04:56:20.410Z,23.93
2018-05-24T04:58:48.627Z,25.03
2018-05-24T05:04:21.036Z,24.47
2018-05-24T05:06:49.977Z,23.00
2018-05-24T05:09:18.172Z,23.40
2018-05-24T05:11:47.377Z,26.33
2018-05-24T05:14:16.331Z,29.50
2018-05-24T05:16:47.638Z,29.47
2018-05-24T05:19:15.851Z,28.67
2018-05-24T05:21:44.037Z,27.50
2018-05-24T05:24:13.137Z,24.30
2018-05-24T05:26:41.324Z,24.67
2018-05-24T05:29:09.540Z,23.70
2018-05-24T05:31:48.728Z,23.50
2018-05-24T05:34:16.902Z,23.90
2018-05-24T05:36:45.079Z,23.23
2018-05-24T05:39:13.244Z,25.00
2018-05-24T05:41:41.487Z,24.87
2018-05-24T05:44:09.658Z,23.40
2018-05-24T05:46:37.848Z,24.23
2018-05-24T05:49:06.047Z,24.10
2018-05-24T05:54:13.020Z,24.60
2018-05-24T05:56:41.283Z,24.53
2018-05-24T05:59:09.492Z,24.60
2018-05-24T06:01:37.736Z,25.87
2018-05-24T06:04:05.941Z,26.73
2018-05-24T06:06:34.096Z,25.83
2018-05-24T06:09:02.359Z,28.03
2018-05-24T06:11:30.604Z,27.93
2018-05-24T06:13:58.865Z,26.43
2018-05-24T06:16:26.988Z,25.57
2018-05-24T06:18:55.472Z,27.73
2018-05-24T06:21:48.949Z,26.03
2018-05-24T06:24:26.461Z,25.57
2018-05-24T06:26:55.800Z,24.30
2018-05-24T06:29:25.385Z,27.87
2018-05-24T06:31:59.827Z,26.33
2018-05-24T06:34:28.025Z,26.77
2018-05-24T06:36:56.258Z,25.57
2018-05-24T06:39:25.236Z,25.60
2018-05-24T06:41:57.717Z,25.73
2018-05-24T06:44:25.904Z,26.00
2018-05-24T06:46:54.843Z,24.63
2018-05-24T06:49:23.048Z,25.07
2018-05-24T06:51:57.132Z,25.13
2018-05-24T06:54:51.104Z,26.40
2018-05-24T06:57:19.279Z,22.97
2018-05-24T06:59:47.532Z,24.13
2018-05-24T07:02:18.752Z,24.17
2018-05-24T07:04:47.752Z,24.00
2018-05-24T07:07:16.726Z,23.17
2018-05-24T07:09:45.663Z,24.23
2018-05-24T07:12:26.308Z,25.00
2018-05-24T07:14:55.414Z,24.60
2018-05-24T07:17:23.596Z,25.10
2018-05-24T07:19:51.787Z,26.80
2018-05-24T07:22:20.014Z,24.50
2018-05-24T07:24:48.172Z,24.93
2018-05-24T07:27:16.377Z,25.13
2018-05-24T07:29:44.621Z,25.50
2018-05-24T07:32:14.945Z,27.37
2018-05-24T07:34:43.184Z,28.10
2018-05-24T07:37:11.390Z,29.37
2018-05-24T07:39:40.496Z,27.57
2018-05-24T07:42:08.688Z,26.47
2018-05-24T07:44:36.929Z,25.80
2018-05-24T07:47:05.132Z,26.27
2018-05-24T07:49:33.319Z,25.30
2018-05-24T07:52:04.624Z,24.27
2018-05-24T07:54:33.566Z,24.50
2018-05-24T07:57:01.724Z,26.03
2018-05-24T07:59:29.872Z,26.07
2018-05-24T08:02:03.635Z,25.73
2018-05-24T08:04:31.759Z,26.77
2018-05-24T08:07:00.688Z,25.97
2018-05-24T08:09:29.740Z,24.47
2018-05-24T08:12:07.783Z,22.47
2018-05-24T08:14:35.944Z,24.63
2018-05-24T08:17:04.916Z,24.70
2018-05-24T08:19:33.112Z,25.27
2018-05-24T08:22:02.306Z,24.70
2018-05-24T08:24:30.499Z,24.70
2018-05-24T08:26:58.986Z,24.77
2018-05-24T08:29:27.236Z,24.97
2018-05-24T08:31:56.359Z,24.97
2018-05-24T08:34:24.591Z,25.40
2018-05-24T08:36:55.710Z,23.70
2018-05-24T08:39:23.857Z,25.13
2018-05-24T08:41:59.544Z,25.73
2018-05-24T08:44:28.513Z,24.53
2018-05-24T08:46:56.721Z,22.23
2018-05-24T08:49:25.700Z,22.10
2018-05-24T08:51:55.582Z,21.83
2018-05-24T08:54:23.793Z,18.80
2018-05-24T08:56:52.737Z,20.07
2018-05-24T08:59:20.926Z,20.37
2018-05-24T09:01:53.434Z,19.60
2018-05-24T09:04:22.314Z,18.10
2018-05-24T09:06:50.510Z,17.20
2018-05-24T09:09:19.398Z,16.80
2018-05-24T09:12:02.284Z,15.23
2018-05-24T09:14:30.409Z,14.83
2018-05-24T09:16:58.527Z,15.03
2018-05-24T09:19:26.723Z,13.40
2018-05-24T09:22:13.584Z,13.13
2018-05-24T09:24:41.762Z,11.83
2018-05-24T09:27:09.908Z,11.13
2018-05-24T09:29:38.045Z,10.30
2018-05-24T09:32:20.975Z,11.97
2018-05-24T09:34:50.297Z,10.93
2018-05-24T09:37:19.160Z,10.10
2018-05-24T09:39:48.132Z,9.70
2018-05-24T09:42:40.305Z,9.77
2018-05-24T09:45:08.484Z,10.07
2018-05-24T09:47:36.652Z,10.50
2018-05-24T09:50:05.555Z,9.07
2018-05-24T09:52:33.688Z,10.63
2018-05-24T09:55:01.849Z,10.57
2018-05-24T09:57:29.998Z,10.17
2018-05-24T09:59:58.146Z,9.67
2018-05-24T10:02:31.174Z,9.90
2018-05-24T10:05:00.414Z,9.77
2018-05-24T10:07:29.282Z,9.83
2018-05-24T10:09:57.357Z,10.30
2018-05-24T10:12:25.438Z,9.20
2018-05-24T10:14:54.893Z,9.00
2018-05-24T10:17:22.981Z,9.33
2018-05-24T10:19:51.055Z,8.87
2018-05-24T10:22:19.138Z,9.73
2018-05-24T10:24:47.213Z,8.17
2018-05-24T10:27:15.301Z,8.23
2018-05-24T10:29:44.150Z,7.87
2018-05-24T10:32:16.262Z,8.23
2018-05-24T10:34:45.167Z,8.23
2018-05-24T10:37:13.282Z,7.47
2018-05-24T10:39:41.366Z,6.90
2018-05-24T10:42:17.934Z,6.85
2018-05-24T10:44:46.031Z,7.50
2018-05-24T10:47:14.954Z,6.97
2018-05-24T10:49:43.074Z,6.93
2018-05-24T10:52:11.274Z,7.22
2018-05-24T10:54:40.214Z,5.93
2018-05-24T10:57:08.327Z,5.93
2018-05-24T10:59:37.233Z,6.13
2018-05-24T11:02:08.062Z,5.62
2018-05-24T11:04:36.187Z,5.90
2018-05-24T11:07:04.286Z,5.35
2018-05-24T11:09:32.386Z,5.32
2018-05-24T11:12:05.438Z,5.07
2018-05-24T11:14:33.562Z,5.47
2018-05-24T11:17:01.727Z,5.40
2018-05-24T11:19:29.834Z,6.43
2018-05-24T11:22:02.558Z,6.15
2018-05-24T11:24:31.434Z,6.25
2018-05-24T11:26:59.597Z,5.57
2018-05-24T11:29:27.711Z,4.97
2018-05-24T11:31:57.564Z,5.40
2018-05-24T11:34:26.383Z,5.53
2018-05-24T11:36:54.558Z,5.97
2018-05-24T11:39:23.346Z,5.77
2018-05-24T11:41:51.424Z,6.10
2018-05-24T11:44:19.520Z,5.07
2018-05-24T11:46:47.640Z,5.50
2018-05-24T11:49:15.798Z,5.20
2018-05-24T11:51:52.984Z,4.93
2018-05-24T11:54:21.082Z,5.07
2018-05-24T11:56:49.257Z,5.10
2018-05-24T11:59:17.436Z,4.90
2018-05-24T12:01:45.643Z,4.67
2018-05-24T12:04:13.734Z,4.70
2018-05-24T12:06:42.228Z,4.63
2018-05-24T12:09:10.317Z,4.50
2018-05-24T12:11:38.390Z,4.47
2018-05-24T12:14:06.537Z,5.17
2018-05-24T12:16:34.684Z,5.13
2018-05-24T12:19:02.896Z,5.73
2018-05-24T12:21:32.990Z,5.23
2018-05-24T12:24:01.100Z,5.73
2018-05-24T12:26:29.162Z,5.67
2018-05-24T12:28:57.273Z,6.47
2018-05-24T12:31:25.390Z,6.87
2018-05-24T12:33:53.519Z,6.40
2018-05-24T12:36:22.436Z,7.37
2018-05-24T12:38:50.550Z,7.43
2018-05-24T12:41:18.732Z,7.37
2018-05-24T12:43:46.860Z,6.97
2018-05-24T12:46:15.035Z,8.03
2018-05-24T12:48:43.156Z,7.87
2018-05-24T12:51:12.384Z,9.23
2018-05-24T12:53:41.282Z,8.37
2018-05-24T12:56:09.472Z,8.83
2018-05-24T12:58:38.363Z,9.87
2018-05-24T13:01:16.591Z,11.57
2018-05-24T13:03:44.764Z,12.10
2018-05-24T13:06:12.928Z,11.27
2018-05-24T13:08:41.087Z,10.23
2018-05-24T13:11:14.257Z,6.70
2018-05-24T13:13:42.306Z,7.47
2018-05-24T13:16:10.426Z,7.37
2018-05-24T13:18:38.551Z,7.13
2018-05-24T13:21:06.651Z,7.67
2018-05-24T13:23:34.854Z,7.70
2018-05-24T13:26:03.011Z,8.13
2018-05-24T13:28:31.130Z,8.63
2018-05-24T13:31:00.132Z,7.63
2018-05-24T13:33:28.209Z,7.60
2018-05-24T13:35:56.286Z,7.83
2018-05-24T13:38:25.134Z,6.93
2018-05-24T13:40:53.210Z,7.00
2018-05-24T13:43:21.322Z,7.67
2018-05-24T13:45:50.181Z,7.60
2018-05-24T13:48:18.257Z,7.77
2018-05-24T13:50:46.341Z,8.83
2018-05-24T13:53:14.430Z,8.13
2018-05-24T13:55:43.302Z,8.27
2018-05-24T13:58:11.413Z,8.07
2018-05-24T14:00:49.249Z,7.40
2018-05-24T14:03:17.329Z,6.30
2018-05-24T14:05:45.410Z,6.30
2018-05-24T14:08:13.485Z,6.33
2018-05-24T14:10:46.454Z,6.37
2018-05-24T14:13:14.545Z,7.23
2018-05-24T14:15:42.617Z,6.43
2018-05-24T14:18:10.714Z,6.57
2018-05-24T14:20:39.558Z,6.57
2018-05-24T14:23:07.644Z,6.43
2018-05-24T14:25:35.725Z,6.27
2018-05-24T14:28:03.793Z,5.67
2018-05-24T14:30:33.799Z,5.70
2018-05-24T14:33:01.878Z,5.17
2018-05-24T14:35:29.957Z,4.13
2018-05-24T14:37:58.034Z,4.43
2018-05-24T14:40:26.883Z,4.00
2018-05-24T14:42:54.987Z,4.13
2018-05-24T14:45:23.058Z,5.47
2018-05-24T14:47:57.030Z,6.43
2018-05-24T14:50:25.106Z,6.20
2018-05-24T14:52:53.194Z,6.00
2018-05-24T14:55:21.277Z,8.43
2018-05-24T14:57:49.369Z,9.37
2018-05-24T15:00:18.241Z,9.43
2018-05-24T15:02:46.318Z,9.33
2018-05-24T15:05:14.405Z,10.30
2018-05-24T15:07:43.271Z,10.77
2018-05-24T15:10:11.427Z,11.60
2018-05-24T15:12:40.511Z,12.20
2018-05-24T15:15:08.663Z,11.80
2018-05-24T15:17:36.788Z,11.90
2018-05-24T15:20:04.896Z,11.83
2018-05-24T15:22:33.045Z,12.27
2018-05-24T15:25:01.222Z,12.40
2018-05-24T15:27:29.396Z,11.57
2018-05-24T15:29:57.536Z,13.33
2018-05-24T15:32:25.643Z,13.73
2018-05-24T15:34:54.517Z,14.77
2018-05-24T15:37:23.373Z,14.27
2018-05-24T15:39:51.454Z,16.00
2018-05-24T15:42:26.690Z,14.57
2018-05-24T15:44:54.781Z,16.73
2018-05-24T15:47:22.853Z,18.00
2018-05-24T15:49:51.006Z,16.83
2018-05-24T15:52:19.086Z,17.50
2018-05-24T15:54:47.165Z,18.10
2018-05-24T15:57:15.245Z,18.00
2018-05-24T15:59:43.330Z,18.47
2018-05-24T16:02:13.119Z,18.60
2018-05-24T16:04:41.226Z,18.23
2018-05-24T16:07:09.316Z,18.17
2018-05-24T16:09:37.410Z,17.83
2018-05-24T16:12:10.013Z,17.33
2018-05-24T16:14:38.079Z,18.00
2018-05-24T16:17:06.178Z,17.63
2018-05-24T16:19:35.027Z,18.67
2018-05-24T16:22:04.042Z,17.60
2018-05-24T16:24:32.118Z,17.83
2018-05-24T16:27:00.197Z,18.17
2018-05-24T16:29:29.677Z,17.13
2018-05-24T16:31:57.761Z,18.73
2018-05-24T16:34:25.832Z,18.50
2018-05-24T16:36:53.923Z,20.20
2018-05-24T16:39:22.805Z,18.90
2018-05-24T16:41:55.376Z,17.93
2018-05-24T16:44:24.234Z,18.60
2018-05-24T16:46:52.317Z,19.40
2018-05-24T16:49:20.393Z,19.00
2018-05-24T16:51:57.685Z,19.50
2018-05-24T16:54:25.842Z,19.80
2018-05-24T16:56:54.627Z,20.13
2018-05-24T16:59:22.710Z,20.60
2018-05-24T17:02:13.622Z,19.60
2018-05-24T17:04:41.697Z,19.37
2018-05-24T17:07:09.789Z,18.47
2018-05-24T17:09:38.626Z,19.50
2018-05-24T17:12:23.893Z,19.30
2018-05-24T17:14:51.969Z,19.17
2018-05-24T17:17:20.061Z,19.07
2018-05-24T17:19:48.133Z,19.10
2018-05-24T17:22:17.150Z,17.97
2018-05-24T17:24:46.002Z,18.30
2018-05-24T17:27:14.077Z,16.70
2018-05-24T17:29:42.165Z,16.17
2018-05-24T17:32:19.565Z,14.67
2018-05-24T17:34:47.659Z,14.90
2018-05-24T17:37:16.518Z,14.97
2018-05-24T17:39:44.602Z,13.63
2018-05-24T17:42:48.014Z,11.80
2018-05-24T17:45:16.870Z,10.40
2018-05-24T17:47:44.954Z,10.80
2018-05-24T17:50:13.050Z,10.13
2018-05-24T17:52:46.506Z,9.10
2018-05-24T17:55:14.631Z,9.00
2018-05-24T17:57:42.705Z,7.80
2018-05-24T18:00:10.782Z,9.23
2018-05-24T18:02:47.942Z,8.80
2018-05-24T18:05:16.086Z,8.70
2018-05-24T18:07:44.206Z,8.90
2018-05-24T18:10:12.335Z,8.87
2018-05-24T18:12:40.405Z,8.13
2018-05-24T18:15:08.501Z,9.00
2018-05-24T18:17:37.338Z,8.40
2018-05-24T18:20:05.426Z,8.93
2018-05-24T18:22:35.452Z,7.83
2018-05-24T18:25:03.525Z,8.50
2018-05-24T18:27:31.594Z,8.70
2018-05-24T18:29:59.682Z,7.83
2018-05-24T18:32:34.894Z,8.33
2018-05-24T18:35:02.981Z,7.67
2018-05-24T18:37:31.082Z,7.40
2018-05-24T18:39:59.995Z,7.10
2018-05-24T18:42:50.821Z,7.93
2018-05-24T18:45:18.937Z,7.37
2018-05-24T18:47:47.815Z,6.83
2018-05-24T18:50:16.004Z,7.13
2018-05-24T18:52:45.806Z,6.90
2018-05-24T18:55:13.905Z,6.97
2018-05-24T18:57:42.085Z,7.00
2018-05-24T19:00:10.278Z,7.30
2018-05-24T19:02:39.325Z,7.33
2018-05-24T19:05:17.549Z,6.87
2018-05-24T19:07:47.310Z,8.50
2018-05-24T19:10:15.431Z,7.63
2018-05-24T19:12:58.657Z,6.53
2018-05-24T19:15:26.729Z,6.90
2018-05-24T19:17:54.813Z,7.03
2018-05-24T19:20:22.885Z,7.23
2018-05-24T19:22:50.981Z,7.80
2018-05-24T19:25:19.054Z,9.80
2018-05-24T19:27:47.138Z,8.20
2018-05-24T19:30:15.206Z,7.80
2018-05-24T19:32:47.694Z,8.07
2018-05-24T19:35:15.778Z,7.37
2018-05-24T19:37:43.861Z,8.00
2018-05-24T19:40:12.701Z,7.10
2018-05-24T19:42:40.789Z,8.13
2018-05-24T19:45:08.877Z,8.73
2018-05-24T19:47:36.953Z,8.17
2018-05-24T19:50:05.026Z,7.20
2018-05-24T19:52:33.118Z,7.93
2018-05-24T19:55:01.205Z,7.93
2018-05-24T19:57:29.298Z,7.20
2018-05-24T19:59:57.387Z,7.80
2018-05-24T20:02:34.078Z,6.87
2018-05-24T20:05:02.154Z,7.57
2018-05-24T20:07:30.225Z,7.50
2018-05-24T20:09:58.305Z,11.83
2018-05-24T20:12:27.169Z,7.33
2018-05-24T20:14:55.237Z,8.47
2018-05-24T20:17:23.314Z,8.20
2018-05-24T20:19:51.385Z,7.67
2018-05-24T20:22:24.685Z,7.80
2018-05-24T20:24:52.758Z,7.63
2018-05-24T20:27:20.853Z,7.83
2018-05-24T20:29:49.690Z,8.00
2018-05-24T20:32:21.268Z,7.73
2018-05-24T20:34:49.333Z,8.07
2018-05-24T20:37:17.406Z,8.10
2018-05-24T20:39:45.514Z,8.33
2018-05-24T20:42:17.437Z,8.47
2018-05-24T20:44:45.517Z,7.80
2018-05-24T20:47:13.590Z,8.67
2018-05-24T20:49:41.674Z,8.80
2018-05-24T20:52:11.485Z,8.37
2018-05-24T20:54:40.367Z,8.07
2018-05-24T20:57:08.438Z,8.70
2018-05-24T20:59:36.514Z,7.53
2018-05-24T21:02:04.581Z,8.93
2018-05-24T21:04:32.666Z,7.97
2018-05-24T21:07:01.553Z,8.20
2018-05-24T21:09:29.602Z,7.63
2018-05-24T21:11:57.670Z,8.00
2018-05-24T21:14:25.756Z,8.93
2018-05-24T21:16:53.825Z,9.60
2018-05-24T21:19:21.921Z,8.33
2018-05-24T21:21:50.976Z,8.07
2018-05-24T21:24:19.051Z,9.37
2018-05-24T21:26:47.138Z,9.00
2018-05-24T21:29:15.244Z,9.00
2018-05-24T21:31:44.278Z,8.63
2018-05-24T21:34:12.362Z,9.83
2018-05-24T21:36:40.442Z,8.33
2018-05-24T21:39:08.530Z,8.17
2018-05-24T21:41:38.317Z,9.03
2018-05-24T21:44:06.390Z,8.63
2018-05-24T21:46:34.469Z,9.27
2018-05-24T21:49:02.547Z,8.93
2018-05-24T21:51:31.406Z,7.40
2018-05-24T21:53:59.489Z,6.57
2018-05-24T21:56:27.561Z,5.40
2018-05-24T21:58:55.629Z,5.73
2018-05-24T22:01:23.710Z,6.20
2018-05-24T22:03:51.781Z,6.50
2018-05-24T22:06:19.854Z,6.77
2018-05-24T22:08:47.930Z,7.17
2018-05-24T22:11:16.006Z,7.80
2018-05-24T22:13:44.082Z,8.20
2018-05-24T22:16:12.934Z,8.53
2018-05-24T22:18:41.002Z,7.50
2018-05-24T22:21:16.258Z,8.33
2018-05-24T22:23:44.325Z,8.97
2018-05-24T22:26:12.418Z,9.53
2018-05-24T22:28:40.537Z,8.70
2018-05-24T22:31:23.297Z,8.93
2018-05-24T22:33:51.438Z,8.93
2018-05-24T22:36:19.539Z,9.90
2018-05-24T22:38:47.696Z,8.43
2018-05-24T22:41:15.792Z,8.43
2018-05-24T22:43:43.944Z,8.90
2018-05-24T22:46:12.056Z,9.70
2018-05-24T22:48:40.978Z,9.17
2018-05-24T22:51:31.338Z,8.63
2018-05-24T22:54:00.225Z,8.67
2018-05-24T22:56:29.154Z,8.27
2018-05-24T22:58:57.286Z,8.77
2018-05-24T23:02:16.637Z,8.03
2018-05-24T23:04:44.802Z,8.17
2018-05-24T23:07:12.946Z,8.57
2018-05-24T23:09:41.097Z,8.23
2018-05-24T23:12:26.534Z,7.87
2018-05-24T23:14:54.670Z,8.17
2018-05-24T23:17:22.890Z,7.40
2018-05-24T23:19:51.029Z,7.70
2018-05-24T23:22:36.912Z,7.67
2018-05-24T23:25:05.001Z,8.80
2018-05-24T23:27:33.902Z,9.43
2018-05-24T23:30:01.990Z,8.73
2018-05-24T23:32:30.053Z,8.73
2018-05-24T23:34:58.141Z,9.23
2018-05-24T23:37:27.341Z,8.77
2018-05-24T23:39:56.201Z,8.10
2018-05-24T23:42:24.274Z,9.53
2018-05-24T23:44:52.358Z,9.23
2018-05-24T23:47:20.425Z,8.73
2018-05-24T23:49:48.509Z,8.67
2018-05-24T23:52:16.585Z,9.53
2018-05-24T23:54:44.677Z,10.20
2018-05-24T23:57:12.753Z,9.27
2018-05-24T23:59:40.860Z,10.97
